createdAt,value
2023-03-12T00:01:18.671Z,7.90
2023-03-12T00:03:45.570Z,4.28
2023-03-12T00:06:12.624Z,6.20
2023-03-12T00:08:40.125Z,6.10
2023-03-12T00:11:11.535Z,6.15
2023-03-12T00:13:38.608Z,5.72
2023-03-12T00:16:13.688Z,7.45
2023-03-12T00:18:41.085Z,8.65
2023-03-12T00:21:08.638Z,5.68
2023-03-12T00:23:35.855Z,7.50
2023-03-12T00:26:08.353Z,5.80
2023-03-12T00:28:36.228Z,10.80
2023-03-12T00:31:04.585Z,8.32
2023-03-12T00:33:31.171Z,7.75
2023-03-12T00:36:00.890Z,9.88
2023-03-12T00:38:27.395Z,10.07
2023-03-12T00:40:53.817Z,7.57
2023-03-12T00:43:20.305Z,5.80
2023-03-12T00:45:46.778Z,8.57
2023-03-12T00:48:13.371Z,8.02
2023-03-12T00:50:39.921Z,9.57
2023-03-12T00:53:06.785Z,6.70
2023-03-12T00:55:33.305Z,6.05
2023-03-12T00:57:59.713Z,4.95
2023-03-12T01:00:26.487Z,9.00
2023-03-12T01:02:53.048Z,4.43
2023-03-12T01:05:19.882Z,8.20
2023-03-12T01:10:18.802Z,4.07
2023-03-12T01:12:45.110Z,5.90
2023-03-12T01:15:15.474Z,5.90
2023-03-12T01:17:41.881Z,7.07
2023-03-12T01:20:10.983Z,6.88
2023-03-12T01:22:37.561Z,5.80
2023-03-12T01:25:04.115Z,4.95
2023-03-12T01:27:30.456Z,4.13
2023-03-12T01:29:56.824Z,4.95
2023-03-12T01:32:23.597Z,8.98
2023-03-12T01:34:49.962Z,9.20
2023-03-12T01:37:16.283Z,9.52
2023-03-12T01:39:42.624Z,6.35
2023-03-12T01:42:09.242Z,5.20
2023-03-12T01:44:58.143Z,6.68
2023-03-12T01:47:25.813Z,7.20
2023-03-12T01:49:55.719Z,6.38
2023-03-12T01:52:26.538Z,6.97
2023-03-12T01:55:13.465Z,7.40
2023-03-12T01:57:46.147Z,8.45
2023-03-12T02:00:16.103Z,7.30
2023-03-12T02:02:44.583Z,6.60
2023-03-12T02:05:33.180Z,6.57
2023-03-12T02:07:59.560Z,9.60
2023-03-12T02:10:26.476Z,6.38
2023-03-12T02:12:53.175Z,8.25
2023-03-12T02:15:19.888Z,7.47
2023-03-12T02:17:46.548Z,7.45
2023-03-12T02:20:23.938Z,7.03
2023-03-12T02:23:05.635Z,12.73
2023-03-12T02:25:43.908Z,7.43
2023-03-12T02:28:14.602Z,5.80
2023-03-12T02:30:45.810Z,7.13
2023-03-12T02:33:12.821Z,10.98
2023-03-12T02:35:39.400Z,8.90
2023-03-12T02:38:32.044Z,7.40
2023-03-12T02:41:06.676Z,6.00
2023-03-12T02:43:33.019Z,6.53
2023-03-12T02:45:59.567Z,6.43
2023-03-12T02:48:25.998Z,9.60
2023-03-12T02:50:52.349Z,5.57
2023-03-12T02:53:18.719Z,5.95
2023-03-12T02:55:45.133Z,7.93
2023-03-12T02:58:11.484Z,9.57
2023-03-12T03:00:37.908Z,8.65
2023-03-12T03:03:04.318Z,7.50
2023-03-12T03:05:30.665Z,4.93
2023-03-12T03:07:56.991Z,9.95
2023-03-12T03:10:23.384Z,6.72
2023-03-12T03:12:50.048Z,7.82
2023-03-12T03:15:16.500Z,10.52
2023-03-12T03:17:42.810Z,10.77
2023-03-12T03:20:11.930Z,8.18
2023-03-12T03:22:39.254Z,7.43
2023-03-12T03:25:07.768Z,7.05
2023-03-12T03:27:34.235Z,7.18
2023-03-12T03:30:00.672Z,6.53
2023-03-12T03:32:27.372Z,12.70
2023-03-12T03:34:53.813Z,10.45
2023-03-12T03:37:20.120Z,8.85
2023-03-12T03:39:46.486Z,5.95
2023-03-12T03:42:12.853Z,8.07
2023-03-12T03:44:39.166Z,8.65
2023-03-12T03:47:05.668Z,9.48
2023-03-12T03:49:32.073Z,7.80
2023-03-12T03:51:58.425Z,7.25
2023-03-12T03:54:24.782Z,10.77
2023-03-12T03:56:51.092Z,7.75
2023-03-12T03:59:17.444Z,7.95
2023-03-12T04:01:43.749Z,9.80
2023-03-12T04:04:10.084Z,6.13
2023-03-12T04:06:37.549Z,6.68
2023-03-12T04:09:04.578Z,7.35
2023-03-12T04:11:30.976Z,10.50
2023-03-12T04:13:57.866Z,5.45
2023-03-12T04:16:24.728Z,10.48
2023-03-12T04:18:51.222Z,6.47
2023-03-12T04:21:17.589Z,7.93
2023-03-12T04:23:43.980Z,11.25
2023-03-12T04:26:10.556Z,8.38
2023-03-12T04:28:38.075Z,9.40
2023-03-12T04:31:07.200Z,4.97
2023-03-12T04:33:37.120Z,6.18
2023-03-12T04:36:04.652Z,5.65
2023-03-12T04:38:31.265Z,7.78
2023-03-12T04:41:07.191Z,8.77
2023-03-12T04:43:34.692Z,7.07
2023-03-12T04:46:02.773Z,7.40
2023-03-12T04:48:29.337Z,4.65
2023-03-12T04:50:55.751Z,7.57
2023-03-12T04:53:22.739Z,8.98
2023-03-12T04:55:50.067Z,5.43
2023-03-12T04:58:16.437Z,5.80
2023-03-12T05:00:42.993Z,6.20
2023-03-12T05:03:09.844Z,4.70
2023-03-12T05:05:36.715Z,6.50
2023-03-12T05:08:04.362Z,4.07
2023-03-12T05:10:30.696Z,4.63
2023-03-12T05:12:57.088Z,6.57
2023-03-12T05:15:24.091Z,5.82
2023-03-12T05:17:50.478Z,4.50
2023-03-12T05:20:19.688Z,7.95
2023-03-12T05:22:46.009Z,5.75
2023-03-12T05:25:12.460Z,3.53
2023-03-12T05:27:39.085Z,4.40
2023-03-12T05:30:07.114Z,7.43
2023-03-12T05:32:33.532Z,5.78
2023-03-12T05:34:59.929Z,5.00
2023-03-12T05:37:26.279Z,3.95
2023-03-12T05:39:54.199Z,5.18
2023-03-12T05:42:20.522Z,5.45
2023-03-12T05:44:46.831Z,3.65
2023-03-12T05:47:13.184Z,5.22
2023-03-12T05:49:39.515Z,5.32
2023-03-12T05:52:06.460Z,5.00
2023-03-12T05:54:32.799Z,6.25
2023-03-12T05:56:59.171Z,5.13
2023-03-12T05:59:25.584Z,2.83
2023-03-12T06:01:51.949Z,4.25
2023-03-12T06:04:18.343Z,3.72
2023-03-12T06:06:44.666Z,5.30
2023-03-12T06:09:11.188Z,5.53
2023-03-12T06:11:37.545Z,4.53
2023-03-12T06:14:04.834Z,4.78
2023-03-12T06:16:31.301Z,7.90
2023-03-12T06:19:00.262Z,5.82
2023-03-12T06:21:30.759Z,7.47
2023-03-12T06:23:57.810Z,5.38
2023-03-12T06:26:24.599Z,4.47
2023-03-12T06:28:52.068Z,6.22
2023-03-12T06:31:20.471Z,5.50
2023-03-12T06:33:47.379Z,6.43
2023-03-12T06:36:13.884Z,3.25
2023-03-12T06:38:40.933Z,4.20
2023-03-12T06:41:13.031Z,4.97
2023-03-12T06:43:40.123Z,5.47
2023-03-12T06:46:08.767Z,4.97
2023-03-12T06:48:41.242Z,5.50
2023-03-12T06:51:10.516Z,3.13
2023-03-12T06:53:37.167Z,3.88
2023-03-12T06:56:04.247Z,4.35
2023-03-12T06:58:31.483Z,4.30
2023-03-12T07:00:58.220Z,3.95
2023-03-12T07:03:24.881Z,6.40
2023-03-12T07:05:51.829Z,4.65
2023-03-12T07:11:18.941Z,6.93
2023-03-12T07:13:48.603Z,2.60
2023-03-12T07:21:25.761Z,4.50
2023-03-12T07:23:52.702Z,8.55
2023-03-12T07:26:20.084Z,5.07
2023-03-12T07:28:46.801Z,6.18
2023-03-12T07:31:13.363Z,3.22
2023-03-12T07:33:40.057Z,7.57
2023-03-12T07:36:07.453Z,4.72
2023-03-12T07:38:59.061Z,5.05
2023-03-12T07:41:25.646Z,3.95
2023-03-12T07:43:52.176Z,6.35
2023-03-12T07:46:18.938Z,3.00
2023-03-12T07:48:45.444Z,8.07
2023-03-12T07:51:12.005Z,7.65
2023-03-12T07:53:38.641Z,5.88
2023-03-12T07:56:05.754Z,5.32
2023-03-12T07:58:32.774Z,8.98
2023-03-12T08:01:08.505Z,6.82
2023-03-12T08:03:43.176Z,7.50
2023-03-12T08:06:10.083Z,6.30
2023-03-12T08:08:40.934Z,7.15
2023-03-12T08:11:08.634Z,5.65
2023-03-12T08:13:38.291Z,5.10
2023-03-12T08:16:09.536Z,6.15
2023-03-12T08:18:36.474Z,5.68
2023-03-12T08:21:38.338Z,6.32
2023-03-12T08:24:53.257Z,3.05
2023-03-12T08:27:40.116Z,5.47
2023-03-12T08:30:43.938Z,5.85
2023-03-12T08:33:31.820Z,6.53
2023-03-12T08:38:39.542Z,5.28
2023-03-12T08:41:06.238Z,6.13
2023-03-12T08:43:38.691Z,4.15
2023-03-12T08:46:05.234Z,2.85
2023-03-12T08:48:38.459Z,7.28
2023-03-12T08:51:11.431Z,4.32
2023-03-12T08:53:38.129Z,7.85
2023-03-12T08:56:33.842Z,6.05
2023-03-12T08:59:52.800Z,5.93
2023-03-12T09:01:54.406Z,4.32
2023-03-12T09:04:21.101Z,4.90
2023-03-12T09:06:47.727Z,7.50
2023-03-12T09:10:13.055Z,5.72
2023-03-12T09:16:24.536Z,5.32
2023-03-12T09:18:54.646Z,5.30
2023-03-12T09:21:40.562Z,5.82
2023-03-12T09:35:48.292Z,5.70
2023-03-12T09:38:15.558Z,5.50
2023-03-12T09:43:53.024Z,6.68
2023-03-12T09:47:00.850Z,6.97
2023-03-12T09:50:02.926Z,6.93
2023-03-12T09:52:48.794Z,4.55
2023-03-12T09:55:21.758Z,7.50
2023-03-12T10:04:23.711Z,6.78
2023-03-12T10:07:03.682Z,8.30
2023-03-12T10:12:31.019Z,7.85
2023-03-12T10:15:23.657Z,4.55
2023-03-12T10:18:04.314Z,3.72
2023-03-12T10:21:08.434Z,6.05
2023-03-12T10:23:50.955Z,3.65
2023-03-12T10:26:32.300Z,3.65
2023-03-12T10:29:16.119Z,7.32
2023-03-12T10:31:55.247Z,7.60
2023-03-12T10:34:30.683Z,6.22
2023-03-12T10:37:03.069Z,7.70
2023-03-12T10:39:29.647Z,7.53
2023-03-12T10:42:00.112Z,6.03
2023-03-12T10:44:28.886Z,5.18
2023-03-12T10:47:25.661Z,5.93
2023-03-12T10:49:53.375Z,6.05
2023-03-12T10:52:22.446Z,5.28
2023-03-12T10:54:52.214Z,8.65
2023-03-12T10:57:19.554Z,5.43
2023-03-12T10:59:48.240Z,4.97
2023-03-12T11:02:24.025Z,6.50
2023-03-12T11:04:52.463Z,7.35
2023-03-12T11:07:23.803Z,5.88
2023-03-12T11:10:15.127Z,6.28
2023-03-12T11:12:52.806Z,6.90
2023-03-12T11:15:45.939Z,7.50
2023-03-12T11:18:29.246Z,5.43
2023-03-12T11:24:07.325Z,6.15
2023-03-12T11:26:44.779Z,7.28
2023-03-12T11:29:33.354Z,10.10
2023-03-12T11:32:16.781Z,7.88
2023-03-12T11:34:47.756Z,7.28
2023-03-12T11:37:46.005Z,6.68
2023-03-12T11:40:37.764Z,13.40
2023-03-12T11:43:43.248Z,7.20
2023-03-12T11:46:13.351Z,17.10
2023-03-12T11:49:14.356Z,15.10
2023-03-12T11:52:11.040Z,11.88
2023-03-12T11:54:59.348Z,17.42
2023-03-12T11:57:38.118Z,8.82
2023-03-12T12:00:21.146Z,18.17
2023-03-12T12:02:58.039Z,13.05
2023-03-12T12:05:41.871Z,17.98
2023-03-12T12:08:29.623Z,45.85
2023-03-12T12:11:12.917Z,17.33
2023-03-12T12:13:48.714Z,17.83
2023-03-12T12:16:37.292Z,24.35
2023-03-12T12:19:22.162Z,20.25
2023-03-12T12:21:57.198Z,42.08
2023-03-12T12:24:26.580Z,99.55
2023-03-12T12:27:01.819Z,24.08
2023-03-12T12:29:43.620Z,148.77
2023-03-12T12:32:20.254Z,81.10
2023-03-12T12:35:04.973Z,78.88
2023-03-12T12:37:58.530Z,90.60
2023-03-12T12:40:41.859Z,73.30
2023-03-12T12:46:02.051Z,52.17
2023-03-12T12:48:35.076Z,134.40
2023-03-12T12:53:46.826Z,125.60
2023-03-12T12:56:31.439Z,134.15
2023-03-12T12:59:21.425Z,192.02
2023-03-12T13:01:51.023Z,166.80
2023-03-12T13:04:28.485Z,204.68
2023-03-12T13:07:01.027Z,258.08
2023-03-12T13:09:55.871Z,216.73
2023-03-12T13:12:25.410Z,140.10
2023-03-12T13:14:55.048Z,280.77
2023-03-12T13:17:27.333Z,98.25
2023-03-12T13:20:01.622Z,130.85
2023-03-12T13:22:55.226Z,148.63
2023-03-12T13:25:43.542Z,106.43
2023-03-12T13:28:34.768Z,320.33
2023-03-12T13:31:29.166Z,372.58
2023-03-12T13:34:08.971Z,229.63
2023-03-12T13:36:38.370Z,325.30
2023-03-12T13:39:07.928Z,255.02
2023-03-12T13:42:00.727Z,231.18
2023-03-12T13:44:27.189Z,373.85
2023-03-12T13:47:26.964Z,341.83
2023-03-12T13:50:08.404Z,343.60
2023-03-12T13:52:41.425Z,317.15
2023-03-12T13:57:44.746Z,280.27
2023-03-12T14:00:31.622Z,360.90
2023-03-12T14:03:04.955Z,238.05
2023-03-12T14:05:43.077Z,75.03
2023-03-12T14:08:47.088Z,127.63
2023-03-12T14:11:13.532Z,92.82
2023-03-12T14:13:39.987Z,41.38
2023-03-12T14:16:23.012Z,88.07
2023-03-12T14:18:52.085Z,44.33
2023-03-12T14:21:19.975Z,32.47
2023-03-12T14:23:51.858Z,24.42
2023-03-12T14:26:25.802Z,19.10
2023-03-12T14:29:00.472Z,22.35
2023-03-12T14:31:30.407Z,16.38
2023-03-12T14:34:12.307Z,17.60
2023-03-12T14:37:11.507Z,17.38
2023-03-12T14:39:43.602Z,14.68
2023-03-12T14:42:18.359Z,9.63
2023-03-12T14:45:10.257Z,14.23
2023-03-12T14:48:13.473Z,12.45
2023-03-12T14:50:41.050Z,12.27
2023-03-12T14:53:13.453Z,12.43
2023-03-12T14:55:39.968Z,11.30
2023-03-12T14:58:16.091Z,11.45
2023-03-12T15:00:45.567Z,10.45
2023-03-12T15:03:16.549Z,12.50
2023-03-12T15:05:47.646Z,9.82
2023-03-12T15:08:14.937Z,12.43
2023-03-12T15:10:48.742Z,11.95
2023-03-12T15:13:17.248Z,13.02
2023-03-12T15:15:47.726Z,13.27
2023-03-12T15:18:18.989Z,11.85
2023-03-12T15:20:48.101Z,17.05
2023-03-12T15:23:17.289Z,16.15
2023-03-12T15:25:45.050Z,14.15
2023-03-12T15:28:11.451Z,18.27
2023-03-12T15:30:39.603Z,18.95
2023-03-12T15:33:21.817Z,22.13
2023-03-12T15:36:03.506Z,19.58
2023-03-12T15:38:32.849Z,17.70
2023-03-12T15:41:08.373Z,17.88
2023-03-12T15:43:35.383Z,16.30
2023-03-12T15:46:05.260Z,17.10
2023-03-12T15:48:38.453Z,17.10
2023-03-12T15:53:39.833Z,16.10
2023-03-12T15:56:22.210Z,24.67
2023-03-12T15:58:59.653Z,20.83
2023-03-12T16:01:28.133Z,16.77
2023-03-12T16:03:55.271Z,25.00
2023-03-12T16:06:25.777Z,20.30
2023-03-12T16:09:01.264Z,20.80
2023-03-12T16:11:31.324Z,14.93
2023-03-12T16:14:04.398Z,21.67
2023-03-12T16:18:57.460Z,22.40
2023-03-12T16:21:24.075Z,19.60
2023-03-12T16:23:50.571Z,24.95
2023-03-12T16:26:17.112Z,24.85
2023-03-12T16:28:44.004Z,20.23
2023-03-12T16:31:15.606Z,21.98
2023-03-12T16:33:44.614Z,24.45
2023-03-12T16:36:16.521Z,29.00
2023-03-12T16:38:44.182Z,19.67
2023-03-12T16:41:16.033Z,21.88
2023-03-12T16:43:46.577Z,30.30
2023-03-12T16:46:19.479Z,27.85
2023-03-12T16:48:50.067Z,27.98
2023-03-12T16:51:16.656Z,28.30
2023-03-12T16:53:43.525Z,27.60
2023-03-12T16:56:17.487Z,28.27
2023-03-12T16:58:45.390Z,25.83
2023-03-12T17:01:14.503Z,25.77
2023-03-12T17:03:46.494Z,18.98
2023-03-12T17:06:16.471Z,29.35
2023-03-12T17:08:43.652Z,20.08
2023-03-12T17:11:29.228Z,28.88
2023-03-12T17:14:00.177Z,23.02
2023-03-12T17:16:26.895Z,24.85
2023-03-12T17:18:53.602Z,22.92
2023-03-12T17:21:20.995Z,28.45
2023-03-12T17:23:53.571Z,27.05
2023-03-12T17:26:20.057Z,26.13
2023-03-12T17:28:46.652Z,24.45
2023-03-12T17:31:13.260Z,25.75
2023-03-12T17:33:39.912Z,22.45
2023-03-12T17:36:09.172Z,26.25
2023-03-12T17:38:36.394Z,29.58
2023-03-12T17:41:04.678Z,27.27
2023-03-12T17:43:34.984Z,25.75
2023-03-12T17:46:09.242Z,22.15
2023-03-12T17:48:35.964Z,28.33
2023-03-12T17:51:07.286Z,21.92
2023-03-12T17:53:34.143Z,29.35
2023-03-12T17:56:00.547Z,23.40
2023-03-12T17:58:27.373Z,23.95
2023-03-12T18:00:53.841Z,25.10
2023-03-12T18:03:20.258Z,25.60
2023-03-12T18:05:49.851Z,29.33
2023-03-12T18:08:16.677Z,27.60
2023-03-12T18:10:43.318Z,26.33
2023-03-12T18:13:10.362Z,28.15
2023-03-12T18:15:37.232Z,26.35
2023-03-12T18:18:04.932Z,25.17
2023-03-12T18:20:38.585Z,34.28
2023-03-12T18:23:05.937Z,28.08
2023-03-12T18:25:32.519Z,25.05
2023-03-12T18:27:58.978Z,23.80
2023-03-12T18:30:25.847Z,29.50
2023-03-12T18:32:52.418Z,24.92
2023-03-12T18:35:19.051Z,32.35
2023-03-12T18:37:46.005Z,26.08
2023-03-12T18:40:12.809Z,27.35
2023-03-12T18:42:44.296Z,26.77
2023-03-12T18:45:11.913Z,27.85
2023-03-12T18:47:44.666Z,25.33
2023-03-12T18:50:12.629Z,24.20
2023-03-12T18:52:39.128Z,27.75
2023-03-12T18:55:05.848Z,28.95
2023-03-12T18:57:32.319Z,24.48
2023-03-12T18:59:59.471Z,34.88
2023-03-12T19:02:26.094Z,28.23
2023-03-12T19:04:55.496Z,35.22
2023-03-12T19:07:22.686Z,31.95
2023-03-12T19:12:52.821Z,31.88
2023-03-12T19:15:21.921Z,26.73
2023-03-12T19:17:48.444Z,35.70
2023-03-12T19:20:15.663Z,35.05
2023-03-12T19:22:42.088Z,32.33
2023-03-12T19:25:09.017Z,30.67
2023-03-12T19:27:35.533Z,27.23
2023-03-12T19:30:02.220Z,26.58
2023-03-12T19:32:41.982Z,25.05
2023-03-12T19:35:11.154Z,28.80
2023-03-12T19:37:37.639Z,32.13
2023-03-12T19:40:05.846Z,32.75
2023-03-12T19:42:32.801Z,31.63
2023-03-12T19:44:59.365Z,32.80
2023-03-12T19:47:26.750Z,38.95
2023-03-12T19:49:53.396Z,34.20
2023-03-12T19:52:20.195Z,37.35
2023-03-12T19:54:54.663Z,32.55
2023-03-12T19:57:29.638Z,34.65
2023-03-12T19:59:56.186Z,33.47
2023-03-12T20:02:22.758Z,32.45
2023-03-12T20:04:49.418Z,34.13
2023-03-12T20:07:17.404Z,33.78
2023-03-12T20:09:43.803Z,31.45
2023-03-12T20:12:10.350Z,29.80
2023-03-12T20:14:36.754Z,26.95
2023-03-12T20:17:03.341Z,31.42
2023-03-12T20:19:29.886Z,36.40
2023-03-12T20:21:57.232Z,27.08
2023-03-12T20:24:24.077Z,34.88
2023-03-12T20:26:50.598Z,33.35
2023-03-12T20:29:17.042Z,27.65
2023-03-12T20:31:43.630Z,28.33
2023-03-12T20:34:10.153Z,28.90
2023-03-12T20:36:36.613Z,34.38
2023-03-12T20:39:03.146Z,30.45
2023-03-12T20:41:30.641Z,33.38
2023-03-12T20:43:57.697Z,30.25
2023-03-12T20:46:24.566Z,40.30
2023-03-12T20:48:51.616Z,31.67
2023-03-12T20:51:18.304Z,32.72
2023-03-12T20:53:44.953Z,30.52
2023-03-12T20:56:12.987Z,25.45
2023-03-12T20:58:39.571Z,29.10
2023-03-12T21:01:06.272Z,31.52
2023-03-12T21:03:32.943Z,28.52
2023-03-12T21:06:01.394Z,27.70
2023-03-12T21:08:29.072Z,25.48
2023-03-12T21:10:55.748Z,35.35
2023-03-12T21:13:23.618Z,34.15
2023-03-12T21:15:50.729Z,29.73
2023-03-12T21:18:17.918Z,25.85
2023-03-12T21:20:44.917Z,30.02
2023-03-12T21:23:11.558Z,26.58
2023-03-12T21:25:40.092Z,28.85
2023-03-12T21:28:09.193Z,35.25
2023-03-12T21:30:35.964Z,39.70
2023-03-12T21:33:03.190Z,30.17
2023-03-12T21:35:29.881Z,28.60
2023-03-12T21:37:56.870Z,35.58
2023-03-12T21:40:23.957Z,26.20
2023-03-12T21:42:50.699Z,26.05
2023-03-12T21:45:17.509Z,30.00
2023-03-12T21:47:44.076Z,30.65
2023-03-12T21:50:11.180Z,32.47
2023-03-12T21:52:43.099Z,29.15
2023-03-12T21:55:10.341Z,25.63
2023-03-12T21:57:36.822Z,25.42
2023-03-12T22:00:05.131Z,30.75
2023-03-12T22:02:31.945Z,24.05
2023-03-12T22:04:59.909Z,31.45
2023-03-12T22:07:29.813Z,32.20
2023-03-12T22:09:56.432Z,29.77
2023-03-12T22:12:22.990Z,34.72
2023-03-12T22:14:49.528Z,32.92
2023-03-12T22:17:17.080Z,29.25
2023-03-12T22:19:43.701Z,31.88
2023-03-12T22:22:10.169Z,24.60
2023-03-12T22:24:37.501Z,32.53
2023-03-12T22:27:06.565Z,27.75
2023-03-12T22:29:34.154Z,32.00
2023-03-12T22:32:00.955Z,27.27
2023-03-12T22:34:29.443Z,31.40
2023-03-12T22:36:56.015Z,27.92
2023-03-12T22:39:22.495Z,32.67
2023-03-12T22:41:53.664Z,25.48
2023-03-12T22:44:20.253Z,30.08
2023-03-12T22:46:46.870Z,33.15
2023-03-12T22:49:15.064Z,25.67
2023-03-12T22:51:41.934Z,21.00
2023-03-12T22:54:08.368Z,29.42
2023-03-12T22:56:34.940Z,28.92
2023-03-12T22:59:01.448Z,30.15
2023-03-12T23:01:28.057Z,39.92
2023-03-12T23:03:54.533Z,29.52
2023-03-12T23:06:23.973Z,32.53
2023-03-12T23:08:51.834Z,31.92
2023-03-12T23:11:18.844Z,28.02
2023-03-12T23:13:46.661Z,29.08
2023-03-12T23:16:16.922Z,18.17
2023-03-12T23:18:44.622Z,24.60
2023-03-12T23:21:14.001Z,28.40
2023-03-12T23:23:43.381Z,21.77
2023-03-12T23:26:19.370Z,27.30
2023-03-12T23:28:51.282Z,32.35
2023-03-12T23:31:18.044Z,20.80
2023-03-12T23:33:44.784Z,31.95
2023-03-12T23:36:16.152Z,22.98
2023-03-12T23:38:43.140Z,35.40
2023-03-12T23:41:21.074Z,27.38
2023-03-12T23:43:48.019Z,25.52
2023-03-12T23:46:17.065Z,25.60
2023-03-12T23:48:45.658Z,24.45
2023-03-12T23:51:25.114Z,36.78
2023-03-12T23:53:55.686Z,25.77
2023-03-12T23:56:24.870Z,29.48
2023-03-12T23:58:51.592Z,29.00
